Time;durP1;ratioP1;P1;durP2;ratioP2;P2;SDS_P1;SDS_P2;PMS_P1;PMS_P2;Temp;Humidity;BMP_temperature;BMP_pressure;BME280_temperature;BME280_humidity;BME280_pressure;Samples;Min_cycle;Max_cycle;Signal;HPM_P1;HPM_P2
2021/05/02 00:00:32;;;;;;;39.97;19.42;;;;;;;6.92;70.61;100037.84;5041173;28;20132;-78
2021/05/02 00:03:00;;;;;;;37.45;18.83;;;;;;;6.89;70.15;100031.75;5020067;28;20056;-77
2021/05/02 00:05:35;;;;;;;26.88;17.23;;;;;;;6.78;70.83;100041.09;5024073;28;20389;-79
2021/05/02 00:08:05;;;;;;;29.65;17.10;;;;;;;6.68;70.65;100044.44;5018067;28;20057;-77
2021/05/02 00:10:33;;;;;;;26.73;16.13;;;;;;;6.62;69.93;100040.00;5040849;28;20437;-77
2021/05/02 00:13:02;;;;;;;22.02;15.18;;;;;;;6.57;69.94;100036.47;5018214;28;20048;-76
2021/05/02 00:15:48;;;;;;;24.48;14.70;;;;;;;6.71;69.48;100041.88;5052985;27;20139;-77
2021/05/02 00:18:17;;;;;;;21.58;15.65;;;;;;;6.64;68.49;100033.13;5026502;28;20936;-76
2021/05/02 00:20:44;;;;;;;20.85;15.50;;;;;;;6.64;67.88;100040.91;4998483;28;20041;-77
2021/05/02 00:23:10;;;;;;;22.55;13.95;;;;;;;6.23;68.66;100036.88;5015280;28;20045;-77
2021/05/02 00:25:37;;;;;;;19.90;14.40;;;;;;;6.30;68.76;100034.38;5014467;28;20059;-77
2021/05/02 00:28:07;;;;;;;20.45;14.57;;;;;;;6.56;68.25;100029.56;5037592;28;20057;-77
2021/05/02 00:30:34;;;;;;;21.08;15.45;;;;;;;6.41;68.17;100032.81;5037141;28;20076;-76
2021/05/02 00:33:01;;;;;;;22.88;15.30;;;;;;;6.23;68.80;100022.19;5011506;28;20123;-79
2021/05/02 00:35:29;;;;;;;21.10;14.65;;;;;;;6.27;68.61;100025.69;5013933;28;21213;-77
2021/05/02 00:37:56;;;;;;;21.70;15.05;;;;;;;6.28;68.16;100025.72;5036019;28;20524;-77
2021/05/02 00:40:37;;;;;;;22.70;16.00;;;;;;;6.31;68.53;100028.34;5039049;28;20495;-77
2021/05/02 00:43:10;;;;;;;22.00;14.50;;;;;;;6.07;68.79;100028.84;5039477;28;20045;-77
2021/05/02 00:46:15;;;;;;;22.45;14.85;;;;;;;6.06;69.54;100031.41;5038868;28;20055;-77
2021/05/02 00:48:55;;;;;;;25.02;14.90;;;;;;;6.31;68.79;100024.88;5027465;28;20061;-77
2021/05/02 00:51:23;;;;;;;22.77;14.68;;;;;;;6.24;68.69;100033.41;5037181;28;20049;-77
2021/05/02 00:54:08;;;;;;;22.20;15.23;;;;;;;6.28;68.43;100023.13;5017486;28;20073;-77
2021/05/02 00:56:58;;;;;;;21.02;15.95;;;;;;;6.19;68.81;100028.13;5036834;28;20077;-78
2021/05/02 00:59:33;;;;;;;22.65;14.50;;;;;;;6.16;68.77;100028.09;4994426;28;20050;-77
2021/05/02 01:02:03;;;;;;;24.92;14.75;;;;;;;6.23;68.99;100034.28;4957196;28;20042;-77
2021/05/02 01:04:31;;;;;;;20.20;14.70;;;;;;;6.00;69.12;100033.88;4977742;28;20128;-77
2021/05/02 01:07:04;;;;;;;17.45;13.18;;;;;;;6.22;68.69;100029.94;4988913;28;20402;-77
2021/05/02 01:09:32;;;;;;;19.42;13.73;;;;;;;6.20;68.54;100031.59;4947073;28;20055;-80
2021/05/02 01:12:02;;;;;;;22.98;13.13;;;;;;;6.24;68.19;100023.91;4984411;28;20058;-77
2021/05/02 01:14:31;;;;;;;24.15;12.82;;;;;;;6.22;67.87;100025.63;4994846;28;20066;-77
2021/05/02 01:16:59;;;;;;;20.08;11.73;;;;;;;6.17;67.62;100022.06;4982417;28;20133;-77
2021/05/02 01:19:27;;;;;;;17.45;11.82;;;;;;;6.13;67.72;100020.28;4972549;28;20061;-78
2021/05/02 01:21:57;;;;;;;18.65;12.63;;;;;;;6.11;68.16;100022.84;4967180;28;20490;-77
2021/05/02 01:24:26;;;;;;;18.48;12.55;;;;;;;6.20;68.14;100013.44;4966622;28;20062;-77
2021/05/02 01:26:55;;;;;;;18.97;12.50;;;;;;;6.01;68.17;100022.66;4971090;28;20074;-77
2021/05/02 01:29:24;;;;;;;17.02;13.07;;;;;;;5.88;69.27;100015.56;4970490;28;20060;-77
2021/05/02 01:31:50;;;;;;;22.52;12.85;;;;;;;6.04;68.38;100013.22;4967710;28;20184;-78
2021/05/02 01:34:17;;;;;;;20.52;13.30;;;;;;;6.21;67.77;100025.56;4941894;28;20093;-78
2021/05/02 01:36:44;;;;;;;18.33;13.10;;;;;;;6.08;67.64;100019.34;4985154;28;20060;-77
2021/05/02 01:39:11;;;;;;;16.88;11.73;;;;;;;6.03;67.53;100028.78;4990639;28;20068;-79
2021/05/02 01:41:38;;;;;;;17.30;11.90;;;;;;;5.94;67.60;100020.84;5003362;28;20118;-80
2021/05/02 01:44:04;;;;;;;21.23;13.13;;;;;;;6.07;67.38;100023.66;4989580;28;20046;-77
2021/05/02 01:46:31;;;;;;;20.30;14.27;;;;;;;6.22;66.92;100024.75;5002995;28;20041;-78
2021/05/02 01:48:57;;;;;;;22.50;14.25;;;;;;;6.02;67.31;100024.41;4993779;28;20496;-77
2021/05/02 01:51:24;;;;;;;22.40;13.80;;;;;;;5.61;67.74;100021.13;5006361;28;20191;-78
2021/05/02 01:53:51;;;;;;;24.02;14.98;;;;;;;5.72;68.21;100022.16;5013844;28;20046;-78
2021/05/02 01:56:18;;;;;;;23.30;15.25;;;;;;;5.79;67.85;100024.03;4996959;28;20099;-78
2021/05/02 01:58:45;;;;;;;20.92;15.32;;;;;;;5.86;67.57;100025.84;5011801;28;20096;-77
2021/05/02 02:01:15;;;;;;;22.60;16.40;;;;;;;6.08;66.97;100028.00;5007993;28;20042;-77
2021/05/02 02:03:46;;;;;;;22.23;16.23;;;;;;;5.84;67.34;100019.78;5007770;28;20128;-78
2021/05/02 02:06:15;;;;;;;23.33;14.90;;;;;;;5.76;68.01;100021.34;4974988;28;20056;-77
2021/05/02 02:08:43;;;;;;;17.80;14.02;;;;;;;5.79;68.90;100023.16;4985632;28;20370;-78
2021/05/02 02:11:10;;;;;;;23.08;15.35;;;;;;;5.95;67.58;100028.63;5002443;28;20049;-78
2021/05/02 02:13:37;;;;;;;23.45;15.82;;;;;;;6.02;66.81;100027.00;5008043;28;20236;-77
2021/05/02 02:16:08;;;;;;;24.85;16.33;;;;;;;6.05;67.02;100024.47;5009335;28;20517;-78
2021/05/02 02:18:35;;;;;;;24.02;16.20;;;;;;;5.92;67.24;100026.00;5022105;28;20057;-78
2021/05/02 02:21:02;;;;;;;20.58;15.75;;;;;;;5.70;68.20;100014.38;5003560;28;20045;-78
2021/05/02 02:23:35;;;;;;;20.45;14.52;;;;;;;5.91;67.88;100031.16;5005680;28;20137;-78
2021/05/02 02:26:13;;;;;;;22.33;15.40;;;;;;;5.91;67.70;100024.25;5017091;28;20060;-78
2021/05/02 02:28:40;;;;;;;21.92;14.90;;;;;;;5.52;68.32;100019.22;5017745;28;20057;-78
2021/05/02 02:31:11;;;;;;;20.83;15.10;;;;;;;5.60;68.02;100022.84;5007595;28;20049;-79
2021/05/02 02:33:40;;;;;;;18.65;14.48;;;;;;;5.49;68.40;100024.34;4998671;28;20049;-78
2021/05/02 02:36:07;;;;;;;23.02;15.88;;;;;;;5.59;68.14;100023.66;4985912;28;20132;-79
2021/05/02 02:38:35;;;;;;;22.67;16.08;;;;;;;5.59;68.45;100022.78;5010510;28;20069;-79
2021/05/02 02:41:05;;;;;;;24.42;16.08;;;;;;;5.48;68.82;100024.31;5023366;28;20177;-79
2021/05/02 02:43:33;;;;;;;23.10;16.10;;;;;;;5.47;69.20;100027.75;4990908;28;20041;-78
2021/05/02 02:46:05;;;;;;;27.20;16.35;;;;;;;5.33;68.88;100024.03;5016370;28;20475;-79
2021/05/02 02:48:33;;;;;;;;;;;;;;;5.51;69.86;100029.56;5008010;28;20116;-78
2021/05/02 02:51:01;;;;;;;20.83;14.50;;;;;;;5.26;70.25;100034.28;4988145;28;19925;-79
2021/05/02 02:53:33;;;;;;;28.75;17.73;;;;;;;5.12;70.39;100030.56;4996567;28;20359;-79
2021/05/02 02:56:08;;;;;;;27.13;18.27;;;;;;;5.36;69.99;100024.97;4972643;28;20050;-79
2021/05/02 02:58:40;;;;;;;23.23;16.73;;;;;;;5.13;69.97;100032.28;5031020;28;20508;-80
2021/05/02 03:01:09;;;;;;;26.42;16.70;;;;;;;5.21;69.96;100025.56;4993537;28;20079;-79
2021/05/02 03:03:42;;;;;;;25.40;16.05;;;;;;;5.23;69.32;100025.56;5020122;28;20053;-78
2021/05/02 03:06:09;;;;;;;25.50;17.42;;;;;;;5.23;69.68;100034.22;5019770;28;20408;-79
2021/05/02 03:08:39;;;;;;;27.10;16.90;;;;;;;5.26;69.50;100028.25;5008194;28;20053;-78
2021/05/02 03:11:06;;;;;;;27.13;16.63;;;;;;;4.97;70.27;100024.19;5017201;28;20532;-78
2021/05/02 03:13:33;;;;;;;28.05;18.05;;;;;;;5.21;69.48;100025.56;4991354;28;20052;-78
2021/05/02 03:16:03;;;;;;;23.90;15.75;;;;;;;5.19;69.40;100027.22;5004675;28;20518;-78
2021/05/02 03:18:36;;;;;;;25.27;16.83;;;;;;;5.21;69.28;100029.88;5002553;28;20053;-78
2021/05/02 03:21:08;;;;;;;24.80;15.80;;;;;;;5.25;69.25;100037.72;5004146;28;20148;-77
2021/05/02 03:23:39;;;;;;;25.25;16.58;;;;;;;5.21;69.20;100033.31;5010955;28;20049;-78
2021/05/02 03:26:08;;;;;;;27.20;17.13;;;;;;;5.21;68.89;100027.28;5013968;28;20041;-78
2021/05/02 03:28:36;;;;;;;27.33;17.05;;;;;;;5.24;69.02;100032.50;5023399;28;20055;-78
2021/05/02 03:31:05;;;;;;;28.92;18.05;;;;;;;5.04;69.69;100033.81;5002413;28;20096;-78
2021/05/02 03:33:40;;;;;;;26.02;17.85;;;;;;;5.16;69.74;100034.97;4976671;28;20045;-78
2021/05/02 03:36:12;;;;;;;27.10;17.45;;;;;;;5.30;69.21;100032.63;5021946;28;20054;-78
2021/05/02 03:38:46;;;;;;;;;;;;;;;5.62;68.35;100031.50;5008609;28;20104;-79
2021/05/02 03:41:13;;;;;;;29.25;17.85;;;;;;;5.67;67.95;100026.38;5000915;28;19921;-78
2021/05/02 03:43:43;;;;;;;29.83;18.50;;;;;;;5.79;67.61;100033.50;4991977;28;20042;-78
2021/05/02 03:46:25;;;;;;;23.73;16.92;;;;;;;5.30;69.19;100030.03;5018240;28;20042;-78
2021/05/02 03:48:59;;;;;;;;;;;;;;;5.21;69.56;100035.03;4983960;28;20057;-78
2021/05/02 03:51:28;;;;;;;17.98;13.77;;;;;;;5.23;68.37;100034.22;5017534;28;20011;-79
2021/05/02 03:53:57;;;;;;;22.20;14.23;;;;;;;4.92;68.73;100037.06;5002183;28;20046;-78
2021/05/02 03:56:42;;;;;;;20.85;14.27;;;;;;;5.13;68.39;100034.88;5002048;28;20091;-78
2021/05/02 03:59:15;;;;;;;24.98;16.08;;;;;;;5.02;68.41;100036.41;5023438;28;20461;-79
2021/05/02 04:01:50;;;;;;;20.63;15.52;;;;;;;4.91;68.81;100037.88;4998364;28;20062;-78
2021/05/02 04:04:19;;;;;;;20.75;15.63;;;;;;;4.94;68.65;100035.34;5002762;28;20124;-77
2021/05/02 04:06:46;;;;;;;25.80;17.38;;;;;;;4.95;68.94;100033.63;5004190;28;20057;-77
2021/05/02 04:09:14;;;;;;;25.23;18.45;;;;;;;4.99;69.06;100032.88;5019571;28;20547;-78
2021/05/02 04:11:42;;;;;;;26.98;18.45;;;;;;;4.79;70.10;100035.06;5017719;28;20140;-81
2021/05/02 04:14:10;;;;;;;39.22;20.23;;;;;;;4.97;69.72;100044.91;5009603;28;20076;-77
2021/05/02 04:16:36;;;;;;;21.73;14.98;;;;;;;4.83;69.33;100042.91;5007337;28;20053;-78
2021/05/02 04:19:08;;;;;;;30.40;17.40;;;;;;;4.77;68.97;100050.53;5007111;28;20045;-78
2021/05/02 04:21:36;;;;;;;21.17;14.90;;;;;;;4.43;69.29;100040.28;5012810;28;20183;-79
2021/05/02 04:24:05;;;;;;;25.83;16.05;;;;;;;4.55;69.25;100043.16;5021969;28;20287;-79
2021/05/02 04:26:31;;;;;;;22.38;16.17;;;;;;;4.57;69.21;100054.41;5020033;28;20041;-78
2021/05/02 04:28:58;;;;;;;22.80;16.52;;;;;;;4.52;69.40;100057.72;5019156;28;20395;-78
2021/05/02 04:31:24;;;;;;;27.90;16.10;;;;;;;4.67;69.37;100058.06;4997207;28;20053;-78
2021/05/02 04:33:51;;;;;;;29.25;17.15;;;;;;;4.65;69.71;100057.19;5003040;28;20046;-78
2021/05/02 04:36:18;;;;;;;28.90;18.83;;;;;;;4.87;69.09;100054.19;5004172;28;20478;-79
2021/05/02 04:38:44;;;;;;;30.83;20.88;;;;;;;5.06;69.09;100052.84;5006354;28;20355;-77
2021/05/02 04:41:10;;;;;;;33.78;20.50;;;;;;;5.09;69.35;100046.03;4999699;28;20037;-78
2021/05/02 04:43:37;;;;;;;30.02;20.40;;;;;;;5.11;69.58;100053.81;4992411;28;20053;-76
2021/05/02 04:46:03;;;;;;;29.77;19.08;;;;;;;5.26;69.32;100057.59;5005309;28;20159;-78
2021/05/02 04:48:30;;;;;;;31.70;20.08;;;;;;;5.15;69.13;100051.31;5010234;28;20106;-78
2021/05/02 04:50:57;;;;;;;28.90;18.27;;;;;;;5.40;69.08;100059.56;4987572;28;20387;-78
2021/05/02 04:53:25;;;;;;;28.85;17.90;;;;;;;5.58;68.67;100057.31;5000499;28;20052;-79
2021/05/02 04:55:52;;;;;;;24.73;16.00;;;;;;;5.64;67.75;100066.09;4989678;28;20053;-77
2021/05/02 04:58:18;;;;;;;24.10;16.30;;;;;;;5.50;67.67;100072.75;4998553;28;20056;-78
2021/05/02 05:00:45;;;;;;;23.30;15.90;;;;;;;5.61;67.62;100072.94;5017800;28;20049;-78
2021/05/02 05:03:11;;;;;;;24.17;15.27;;;;;;;5.60;67.69;100066.88;5011808;28;20117;-78
2021/05/02 05:05:38;;;;;;;27.13;17.58;;;;;;;5.83;68.20;100071.59;5023141;28;20396;-78
2021/05/02 05:08:05;;;;;;;29.15;18.48;;;;;;;5.84;68.50;100075.94;5005076;28;20056;-79
2021/05/02 05:10:31;;;;;;;25.30;17.77;;;;;;;5.90;68.50;100078.69;4998534;28;20497;-78
2021/05/02 05:12:58;;;;;;;25.92;17.45;;;;;;;6.26;67.77;100071.50;5015475;28;20581;-78
2021/05/02 05:15:24;;;;;;;41.83;25.67;;;;;;;7.01;71.27;100081.22;5016593;28;20064;-79
2021/05/02 05:17:50;;;;;;;59.97;35.95;;;;;;;8.14;75.20;100083.34;4999617;28;20053;-81
2021/05/02 05:20:17;;;;;;;62.33;40.42;;;;;;;9.63;73.67;100085.94;5019934;28;20120;-78
2021/05/02 05:22:45;;;;;;;35.97;27.40;;;;;;;10.53;68.04;100093.88;5007026;28;20121;-79
2021/05/02 05:25:12;;;;;;;26.08;19.20;;;;;;;10.64;65.41;100088.66;5025326;28;20042;-79
2021/05/02 05:27:38;;;;;;;24.63;18.08;;;;;;;11.03;64.10;100092.94;5010673;28;20046;-81
2021/05/02 05:30:05;;;;;;;19.40;14.57;;;;;;;11.67;62.56;100090.88;5022346;28;20053;-78
2021/05/02 05:32:32;;;;;;;17.25;12.43;;;;;;;12.15;58.39;100098.47;5026094;28;20164;-78
2021/05/02 05:34:58;;;;;;;14.55;11.23;;;;;;;12.01;57.23;100104.69;5006235;28;20038;-78
2021/05/02 05:37:25;;;;;;;15.20;10.48;;;;;;;11.45;54.72;100098.00;5026155;28;20045;-77
2021/05/02 05:39:52;;;;;;;13.43;10.68;;;;;;;10.83;54.50;100096.47;5024034;28;20042;-77
2021/05/02 05:42:18;;;;;;;16.95;11.48;;;;;;;11.53;54.42;100105.78;5006503;28;20070;-77
2021/05/02 05:47:03;;;;;;;16.40;11.07;;;;;;;14.28;46.57;100111.78;5052971;27;20471;-76
2021/05/02 05:49:30;;;;;;;16.83;10.07;;;;;;;16.05;42.64;100115.41;5004741;28;20078;-77
2021/05/02 05:51:57;;;;;;;16.85;10.15;;;;;;;17.26;39.41;100111.47;5017775;28;20144;-80
2021/05/02 05:54:24;;;;;;;18.92;12.40;;;;;;;16.08;38.80;100116.19;4996919;28;20061;-77
2021/05/02 05:56:50;;;;;;;19.13;11.95;;;;;;;17.23;38.42;100111.53;4995176;28;21051;-77
2021/05/02 05:59:17;;;;;;;19.42;12.32;;;;;;;18.71;34.53;100117.56;5013644;28;20055;-77
2021/05/02 06:01:44;;;;;;;15.38;10.65;;;;;;;20.72;32.54;100129.38;4995980;28;20052;-77
2021/05/02 06:04:11;;;;;;;12.35;8.60;;;;;;;22.48;27.24;100134.69;5005871;28;20069;-77
2021/05/02 06:06:38;;;;;;;12.32;8.15;;;;;;;23.51;27.11;100119.66;4998399;28;20176;-77
2021/05/02 06:09:06;;;;;;;15.93;8.95;;;;;;;22.28;27.68;100128.59;4998454;28;20050;-75
2021/05/02 06:11:33;;;;;;;12.85;10.27;;;;;;;20.59;30.55;100117.56;4993822;28;20049;-76
2021/05/02 06:14:00;;;;;;;11.10;9.40;;;;;;;18.92;32.80;100123.03;5011031;28;20046;-76
2021/05/02 06:16:27;;;;;;;13.00;8.80;;;;;;;17.68;35.49;100115.56;4996753;28;20074;-80
2021/05/02 06:18:55;;;;;;;12.38;8.88;;;;;;;17.37;36.30;100109.38;4999029;28;20053;-76
2021/05/02 06:21:25;;;;;;;18.30;9.05;;;;;;;17.06;37.91;100112.00;4997277;28;20505;-76
2021/05/02 06:23:52;;;;;;;16.20;10.05;;;;;;;16.31;40.28;100110.38;5015775;28;20125;-75
2021/05/02 06:26:19;;;;;;;11.43;8.23;;;;;;;16.56;39.99;100110.66;5002109;28;20498;-77
2021/05/02 06:28:48;;;;;;;13.93;7.78;;;;;;;17.02;39.67;100114.78;5008823;28;20116;-75
2021/05/02 06:31:17;;;;;;;9.50;6.75;;;;;;;17.93;40.66;100117.47;4996170;28;20066;-76
2021/05/02 06:33:43;;;;;;;14.95;9.00;;;;;;;19.71;36.32;100117.56;5015329;28;20461;-75
2021/05/02 06:40:43;;;;;;;9.75;6.32;;;;;;;23.03;29.52;100124.78;5101532;27;20416;-77
2021/05/02 06:43:09;;;;;;;9.00;6.10;;;;;;;21.18;32.34;100119.50;5066576;28;20449;-76
2021/05/02 06:45:36;;;;;;;6.78;4.30;;;;;;;20.15;33.79;100129.94;5074593;28;20140;-76
2021/05/02 06:48:03;;;;;;;6.75;4.70;;;;;;;18.06;37.50;100118.81;5063208;28;20052;-76
2021/05/02 06:50:29;;;;;;;5.95;5.00;;;;;;;17.66;39.63;100122.66;5102401;28;20093;-76
2021/05/02 06:52:56;;;;;;;10.60;5.35;;;;;;;16.50;42.03;100113.44;5103143;28;20048;-77
2021/05/02 06:55:23;;;;;;;12.45;5.47;;;;;;;18.05;40.77;100128.50;5083202;28;20154;-77
2021/05/02 06:57:50;;;;;;;10.23;6.20;;;;;;;18.64;41.54;100120.47;5106334;28;20044;-76
2021/05/02 07:00:17;;;;;;;8.15;4.93;;;;;;;19.84;37.05;100117.03;5102799;28;20054;-76
2021/05/02 07:02:43;;;;;;;6.53;4.55;;;;;;;20.81;36.65;100126.34;5084241;28;20048;-77
2021/05/02 07:05:10;;;;;;;5.22;3.50;;;;;;;23.78;32.51;100124.38;5067611;28;20058;-78
2021/05/02 07:07:37;;;;;;;5.90;3.88;;;;;;;26.35;30.93;100130.31;5097486;28;20449;-78
2021/05/02 07:10:05;;;;;;;5.28;3.50;;;;;;;27.80;25.64;100135.56;5077757;28;20048;-78
2021/05/02 07:12:32;;;;;;;6.47;3.25;;;;;;;29.17;24.49;100136.97;5100360;28;20059;-77
2021/05/02 07:14:58;;;;;;;5.63;2.95;;;;;;;27.47;29.19;100135.22;5084143;28;20051;-78
2021/05/02 07:17:25;;;;;;;5.18;2.63;;;;;;;30.23;24.61;100141.97;5100518;28;20043;-78
2021/05/02 07:19:51;;;;;;;5.65;2.30;;;;;;;29.41;22.93;100132.41;5075486;28;20050;-78
2021/05/02 07:22:19;;;;;;;8.43;3.53;;;;;;;31.10;19.33;100143.69;5097386;28;20050;-79
2021/05/02 07:24:50;;;;;;;3.72;1.80;;;;;;;31.76;20.30;100143.38;5084343;28;20076;-79
2021/05/02 07:27:16;;;;;;;4.00;2.10;;;;;;;33.15;19.76;100148.69;5081664;28;20052;-77
2021/05/02 07:29:43;;;;;;;6.63;1.98;;;;;;;34.02;16.48;100147.50;5086280;28;20096;-78
2021/05/02 07:32:10;;;;;;;4.68;2.25;;;;;;;35.02;17.09;100147.44;5049038;28;20094;-79
2021/05/02 07:34:36;;;;;;;3.15;1.52;;;;;;;35.40;16.06;100155.25;5092421;27;20049;-77
2021/05/02 07:37:03;;;;;;;3.65;1.80;;;;;;;36.25;14.43;100153.56;5061480;28;20044;-76
2021/05/02 07:39:29;;;;;;;3.97;2.58;;;;;;;32.61;18.16;100146.53;5104183;27;20044;-77
2021/05/02 07:41:56;;;;;;;3.22;2.20;;;;;;;31.92;17.52;100146.47;5067127;28;20413;-76
2021/05/02 07:44:22;;;;;;;3.67;1.88;;;;;;;31.60;17.45;100141.19;5096396;28;20089;-79
2021/05/02 07:46:49;;;;;;;4.40;2.10;;;;;;;30.49;18.30;100141.72;5102759;27;20039;-78
2021/05/02 07:49:15;;;;;;;3.25;2.13;;;;;;;31.31;17.59;100137.44;5101258;28;20048;-77
2021/05/02 07:51:42;;;;;;;9.27;2.38;;;;;;;29.44;17.75;100128.63;5083550;27;20039;-76
2021/05/02 07:54:08;;;;;;;4.72;1.70;;;;;;;29.65;19.49;100128.75;5076048;28;20047;-78
2021/05/02 07:56:34;;;;;;;3.72;1.48;;;;;;;30.25;18.81;100140.03;5056142;28;20109;-76
2021/05/02 07:59:02;;;;;;;2.97;1.30;;;;;;;30.69;16.58;100139.06;5090470;28;20127;-77
2021/05/02 08:01:28;;;;;;;3.25;1.40;;;;;;;29.34;17.88;100131.19;5065186;28;20041;-77
2021/05/02 08:03:54;;;;;;;2.30;1.10;;;;;;;30.94;16.06;100137.84;5066868;28;20127;-76
2021/05/02 08:06:22;;;;;;;3.05;1.48;;;;;;;28.85;18.36;100135.88;5053314;28;20048;-77
2021/05/02 08:08:49;;;;;;;5.38;1.85;;;;;;;29.34;17.89;100135.72;5085580;28;20040;-76
2021/05/02 08:11:16;;;;;;;2.50;1.38;;;;;;;30.18;18.22;100132.53;5085694;28;20134;-77
2021/05/02 08:13:48;;;;;;;6.53;1.40;;;;;;;30.21;16.95;100133.16;5068319;28;20048;-77
2021/05/02 08:16:20;;;;;;;2.45;1.50;;;;;;;31.35;17.87;100139.75;5103211;28;20051;-77
2021/05/02 08:18:46;;;;;;;4.95;2.38;;;;;;;31.15;15.71;100129.81;5085351;28;20048;-78
2021/05/02 08:21:13;;;;;;;2.50;1.10;;;;;;;32.89;15.52;100137.59;5101835;27;20040;-77
2021/05/02 08:23:39;;;;;;;3.33;1.90;;;;;;;34.98;14.40;100149.63;5062288;28;20032;-75
2021/05/02 08:26:06;;;;;;;3.20;1.10;;;;;;;33.49;14.68;100136.41;5086669;28;20102;-77
2021/05/02 08:28:36;;;;;;;4.25;1.10;;;;;;;30.32;15.46;100126.88;5065948;28;20148;-76
2021/05/02 08:31:10;;;;;;;3.63;1.08;;;;;;;30.63;16.60;100139.59;5086703;28;20043;-78
2021/05/02 08:33:37;;;;;;;2.13;1.20;;;;;;;30.16;17.04;100130.00;5082029;28;20070;-79
2021/05/02 08:36:04;;;;;;;5.70;1.13;;;;;;;29.67;18.15;100133.03;5096806;28;20558;-78
2021/05/02 08:38:31;;;;;;;3.45;1.73;;;;;;;30.34;16.86;100130.31;5085623;28;20101;-79
2021/05/02 08:41:01;;;;;;;5.22;2.13;;;;;;;28.56;19.67;100121.91;5081869;28;20448;-79
2021/05/02 08:43:29;;;;;;;9.10;1.40;;;;;;;30.27;16.61;100129.09;5087281;28;20044;-79
2021/05/02 08:45:56;;;;;;;6.97;1.77;;;;;;;30.22;16.11;100124.06;5066527;28;20052;-78
2021/05/02 08:48:24;;;;;;;2.60;1.10;;;;;;;29.15;17.17;100120.09;5038563;28;20064;-77
2021/05/02 08:50:54;;;;;;;7.70;1.60;;;;;;;25.68;21.45;100121.22;5064830;28;20106;-79
2021/05/02 08:53:21;;;;;;;2.45;1.20;;;;;;;23.95;22.12;100114.56;5063836;28;20041;-78
2021/05/02 08:55:47;;;;;;;3.63;1.20;;;;;;;21.90;24.94;100112.63;5089452;28;20044;-78
2021/05/02 08:58:18;;;;;;;2.58;1.13;;;;;;;25.59;22.67;100116.44;5099120;28;20059;-77
2021/05/02 09:00:46;;;;;;;3.73;1.00;;;;;;;29.41;17.75;100118.94;5066960;28;20117;-77
2021/05/02 09:03:13;;;;;;;1.50;0.90;;;;;;;31.88;14.62;100123.41;5064279;28;20045;-77
2021/05/02 09:05:47;;;;;;;1.70;1.10;;;;;;;35.25;11.85;100131.53;5055925;28;20044;-79
2021/05/02 09:08:31;;;;;;;2.50;1.10;;;;;;;34.11;12.27;100135.75;5071440;28;20068;-78
2021/05/02 09:10:58;;;;;;;2.53;0.90;;;;;;;32.13;14.49;100131.06;5067242;28;20040;-77
2021/05/02 09:13:25;;;;;;;3.10;1.08;;;;;;;28.01;18.08;100112.50;5075508;28;20515;-76
2021/05/02 09:15:59;;;;;;;3.00;1.27;;;;;;;27.07;18.86;100108.47;5076221;28;20562;-77
2021/05/02 09:18:39;;;;;;;3.80;1.20;;;;;;;25.01;21.26;100113.78;5085205;28;20047;-77
2021/05/02 09:21:07;;;;;;;3.33;1.30;;;;;;;24.49;21.94;100111.47;5081123;28;20371;-76
2021/05/02 09:23:42;;;;;;;2.60;1.38;;;;;;;25.61;19.88;100115.38;5060841;28;20067;-76
2021/05/02 09:26:21;;;;;;;1.60;1.02;;;;;;;24.29;21.26;100107.28;5066164;28;20043;-78
2021/05/02 09:28:53;;;;;;;3.65;1.42;;;;;;;22.71;23.78;100112.25;5060564;28;20051;-76
2021/05/02 09:31:21;;;;;;;4.50;1.50;;;;;;;22.32;23.58;100108.88;5057660;28;20056;-76
2021/05/02 09:33:48;;;;;;;4.75;1.42;;;;;;;22.03;23.48;100102.28;5095558;28;20127;-76
2021/05/02 09:36:17;;;;;;;4.78;1.40;;;;;;;21.41;24.99;100091.88;5062736;28;20049;-77
2021/05/02 09:38:44;;;;;;;3.53;1.50;;;;;;;22.01;24.33;100102.38;5079634;28;20040;-76
2021/05/02 09:41:12;;;;;;;6.63;1.77;;;;;;;21.57;25.39;100108.88;5064983;28;20109;-77
2021/05/02 09:43:39;;;;;;;2.85;1.08;;;;;;;21.64;25.16;100107.63;5073920;28;20048;-76
2021/05/02 09:46:36;;;;;;;10.63;1.95;;;;;;;20.86;26.46;100099.63;5064220;28;20046;-76
2021/05/02 09:49:09;;;;;;;7.38;2.40;;;;;;;20.08;28.11;100096.63;5079731;28;20116;-76
2021/05/02 09:51:39;;;;;;;6.03;2.30;;;;;;;21.36;26.41;100093.88;5094665;28;20048;-77
2021/05/02 09:54:27;;;;;;;3.92;2.17;;;;;;;21.51;25.67;100093.19;5065558;28;20043;-76
2021/05/02 09:56:55;;;;;;;3.70;2.03;;;;;;;22.53;24.07;100100.69;5074308;28;20517;-77
2021/05/02 09:59:33;;;;;;;5.63;2.20;;;;;;;22.44;24.18;100093.16;5079833;28;20048;-77
2021/05/02 10:02:11;;;;;;;4.15;2.22;;;;;;;22.60;23.21;100098.56;5074635;28;20098;-77
2021/05/02 10:04:44;;;;;;;4.75;2.38;;;;;;;22.25;23.67;100094.16;5082698;28;20448;-80
2021/05/02 10:07:16;;;;;;;4.88;2.45;;;;;;;22.18;23.59;100093.56;5074915;28;20047;-78
2021/05/02 10:09:43;;;;;;;4.72;2.08;;;;;;;21.74;23.91;100087.66;5060345;28;20418;-77
2021/05/02 10:12:11;;;;;;;5.28;1.75;;;;;;;21.60;25.35;100100.75;5061900;28;20053;-77
2021/05/02 10:14:38;;;;;;;3.67;1.83;;;;;;;20.88;24.34;100095.94;5059926;28;20044;-78
2021/05/02 10:17:06;;;;;;;6.10;2.00;;;;;;;20.62;24.56;100088.25;5057947;28;20048;-76
2021/05/02 10:19:34;;;;;;;5.55;1.90;;;;;;;20.58;23.71;100091.94;5080858;28;20664;-77
2021/05/02 10:22:02;;;;;;;4.88;1.95;;;;;;;20.36;25.11;100091.09;5040454;28;20057;-77
2021/05/02 10:24:36;;;;;;;3.90;2.00;;;;;;;20.36;26.23;100089.31;5055289;28;20079;-79
2021/05/02 10:27:12;;;;;;;2.72;1.83;;;;;;;20.72;26.27;100102.00;5065201;28;20049;-78
2021/05/02 10:29:41;;;;;;;4.30;2.03;;;;;;;20.67;26.45;100094.19;5084323;28;20079;-78
2021/05/02 10:32:11;;;;;;;4.93;2.00;;;;;;;20.18;25.27;100090.03;5069956;28;20389;-79
2021/05/02 10:34:43;;;;;;;5.00;2.22;;;;;;;19.12;27.83;100080.84;5054899;28;20041;-79
2021/05/02 10:54:47;;;;;;;4.53;2.38;;;;;;;22.92;20.46;100079.19;5084841;27;20570;-78
2021/05/02 10:57:35;;;;;;;6.18;2.55;;;;;;;23.57;20.79;100081.97;5045917;27;20090;-78
2021/05/02 11:00:04;;;;;;;11.52;3.75;;;;;;;23.66;21.44;100078.81;5061487;28;20111;-78
2021/05/02 11:02:42;;;;;;;3.55;2.13;;;;;;;22.71;22.45;100077.63;5067174;28;20052;-78
2021/05/02 11:05:15;;;;;;;5.15;2.65;;;;;;;19.35;26.78;100067.63;5073456;28;20045;-80
2021/05/02 11:07:44;;;;;;;11.60;2.95;;;;;;;19.30;26.48;100072.22;5039427;28;20083;-79
2021/05/02 11:10:13;;;;;;;4.93;2.42;;;;;;;17.56;28.98;100065.66;5046200;28;20053;-79
2021/05/02 11:12:41;;;;;;;3.80;2.50;;;;;;;18.36;29.95;100074.66;5038986;28;20053;-79
2021/05/02 11:15:26;;;;;;;4.85;2.35;;;;;;;17.92;29.39;100074.28;5038896;28;20045;-79
2021/05/02 11:17:54;;;;;;;10.25;2.80;;;;;;;17.63;29.28;100061.97;5072425;28;20064;-79
2021/05/02 11:20:50;;;;;;;4.10;2.80;;;;;;;18.22;29.04;100070.66;5069193;27;20415;-79
2021/05/02 11:23:18;;;;;;;3.80;2.55;;;;;;;18.20;28.53;100074.28;5059182;27;20479;-79
2021/05/02 11:26:00;;;;;;;5.22;3.10;;;;;;;18.31;28.51;100072.16;5061631;28;20044;-79
2021/05/02 11:28:42;;;;;;;3.70;2.50;;;;;;;17.99;28.93;100065.25;5059821;27;20041;-79
2021/05/02 11:31:09;;;;;;;4.50;2.93;;;;;;;18.84;27.46;100073.03;5041154;28;20094;-79
2021/05/02 11:33:35;;;;;;;6.70;2.40;;;;;;;20.58;25.06;100069.81;5065227;28;20282;-79
2021/05/02 11:36:03;;;;;;;5.50;2.20;;;;;;;23.40;20.60;100073.03;5054572;28;20381;-79
2021/05/02 11:38:39;;;;;;;3.45;2.05;;;;;;;24.75;19.94;100069.84;5067718;27;20135;-78
2021/05/02 11:41:10;;;;;;;3.25;1.80;;;;;;;25.15;17.56;100079.03;5054364;27;20049;-79
2021/05/02 11:43:38;;;;;;;4.40;1.77;;;;;;;23.75;19.77;100079.16;5039976;27;20076;-79
2021/05/02 11:46:16;;;;;;;4.47;1.90;;;;;;;24.37;19.39;100079.25;5062798;27;20132;-80
2021/05/02 11:48:44;;;;;;;5.85;2.38;;;;;;;25.95;18.61;100083.78;5036019;28;20097;-80
2021/05/02 11:51:16;;;;;;;6.93;2.70;;;;;;;24.00;20.23;100072.47;5054176;27;20067;-79
2021/05/02 11:53:54;;;;;;;7.20;2.67;;;;;;;24.00;19.83;100075.13;5055120;28;20073;-80
2021/05/02 11:56:30;;;;;;;4.45;2.40;;;;;;;23.04;21.22;100067.03;5066329;28;20408;-81